createdAt,value
2023-09-11T00:01:09.497Z,84.98
2023-09-11T00:03:44.091Z,85.04
2023-09-11T00:06:13.258Z,85.15
2023-09-11T00:08:42.373Z,85.29
2023-09-11T00:11:11.435Z,85.40
2023-09-11T00:13:40.397Z,85.44
2023-09-11T00:16:09.557Z,85.76
2023-09-11T00:18:39.155Z,86.12
2023-09-11T00:21:08.521Z,85.92
2023-09-11T00:23:37.390Z,85.60
2023-09-11T00:26:06.084Z,85.42
2023-09-11T00:28:34.744Z,85.67
2023-09-11T00:31:03.995Z,86.27
2023-09-11T00:33:32.912Z,86.40
2023-09-11T00:36:02.637Z,86.45
2023-09-11T00:38:31.556Z,86.69
2023-09-11T00:41:00.321Z,86.58
2023-09-11T00:43:32.307Z,86.60
2023-09-11T00:46:02.100Z,86.25
2023-09-11T00:48:31.116Z,86.58
2023-09-11T00:51:01.173Z,86.44
2023-09-11T00:53:30.743Z,86.11
2023-09-11T00:55:59.782Z,85.95
2023-09-11T00:58:28.637Z,86.29
2023-09-11T01:00:57.701Z,86.74
2023-09-11T01:03:27.990Z,86.69
2023-09-11T01:05:57.267Z,86.34
2023-09-11T01:08:26.188Z,86.71
2023-09-11T01:10:57.536Z,86.62
2023-09-11T01:13:26.400Z,86.86
2023-09-11T01:16:03.855Z,86.56
2023-09-11T01:18:43.169Z,86.86
2023-09-11T01:21:47.747Z,86.62
2023-09-11T01:24:41.832Z,86.23
2023-09-11T01:27:37.345Z,85.92
2023-09-11T01:30:08.021Z,86.03
2023-09-11T01:32:38.792Z,86.07
2023-09-11T01:35:08.745Z,86.17
2023-09-11T01:37:37.620Z,86.12
2023-09-11T01:40:09.238Z,86.05
2023-09-11T01:42:44.358Z,87.08
2023-09-11T01:45:15.549Z,86.95
2023-09-11T01:47:48.598Z,87.02
2023-09-11T01:50:19.896Z,86.70
2023-09-11T01:52:53.371Z,87.27
2023-09-11T01:55:22.431Z,87.41
2023-09-11T01:57:51.575Z,87.67
2023-09-11T02:00:20.341Z,87.81
2023-09-11T02:02:55.812Z,87.91
2023-09-11T02:05:25.280Z,88.15
2023-09-11T02:07:54.690Z,87.58
2023-09-11T02:10:23.672Z,87.74
2023-09-11T02:12:55.545Z,87.30
2023-09-11T02:15:24.665Z,87.41
2023-09-11T02:17:55.068Z,87.80
2023-09-11T02:20:24.018Z,87.48
2023-09-11T02:22:56.105Z,87.44
2023-09-11T02:25:25.030Z,87.54
2023-09-11T02:27:55.200Z,87.57
2023-09-11T02:30:24.109Z,87.59
2023-09-11T02:32:53.328Z,87.75
2023-09-11T02:35:22.395Z,88.02
2023-09-11T02:37:51.459Z,88.16
2023-09-11T02:40:20.430Z,88.31
2023-09-11T02:42:49.226Z,88.47
2023-09-11T02:45:18.283Z,88.59
2023-09-11T02:47:47.407Z,88.81
2023-09-11T02:50:16.808Z,88.71
2023-09-11T02:52:47.418Z,88.70
2023-09-11T02:55:16.518Z,88.42
2023-09-11T02:57:47.011Z,88.84
2023-09-11T03:00:16.429Z,88.52
2023-09-11T03:02:46.573Z,88.53
2023-09-11T03:05:15.821Z,88.80
2023-09-11T03:07:45.154Z,88.72
2023-09-11T03:10:14.226Z,88.73
2023-09-11T03:12:43.196Z,88.67
2023-09-11T03:15:15.313Z,88.91
2023-09-11T03:17:48.800Z,88.95
2023-09-11T03:20:18.154Z,88.89
2023-09-11T03:22:47.352Z,89.06
2023-09-11T03:25:17.041Z,88.97
2023-09-11T03:27:47.319Z,89.06
2023-09-11T03:30:16.905Z,89.09
2023-09-11T03:32:48.092Z,89.19
2023-09-11T03:35:17.167Z,89.25
2023-09-11T03:37:46.553Z,89.29
2023-09-11T03:40:15.800Z,89.20
2023-09-11T03:42:45.314Z,89.27
2023-09-11T03:45:15.626Z,89.14
2023-09-11T03:47:47.602Z,89.38
2023-09-11T03:50:16.549Z,89.40
2023-09-11T03:52:55.566Z,89.31
2023-09-11T03:55:24.956Z,88.94
2023-09-11T03:57:54.022Z,88.81
2023-09-11T04:00:23.090Z,89.07
2023-09-11T04:02:52.426Z,88.97
2023-09-11T04:05:21.506Z,88.80
2023-09-11T04:07:52.438Z,88.94
2023-09-11T04:10:21.960Z,88.89
2023-09-11T04:12:51.642Z,88.99
2023-09-11T04:15:20.660Z,89.24
2023-09-11T04:17:49.981Z,89.49
2023-09-11T04:20:19.786Z,89.39
2023-09-11T04:22:50.515Z,89.08
2023-09-11T04:25:21.517Z,89.06
2023-09-11T04:27:50.492Z,89.12
2023-09-11T04:30:21.233Z,89.45
2023-09-11T04:32:52.694Z,89.61
2023-09-11T04:35:24.136Z,89.63
2023-09-11T04:37:53.598Z,89.61
2023-09-11T04:40:23.140Z,89.59
2023-09-11T04:42:53.230Z,89.59
2023-09-11T04:45:22.260Z,89.52
2023-09-11T04:47:51.672Z,89.46
2023-09-11T04:50:20.852Z,89.52
2023-09-11T04:52:50.179Z,89.66
2023-09-11T04:55:19.728Z,89.55
2023-09-11T04:57:49.155Z,89.48
2023-09-11T05:00:19.784Z,89.58
2023-09-11T05:02:51.654Z,89.58
2023-09-11T05:05:20.610Z,89.59
2023-09-11T05:07:50.549Z,89.50
2023-09-11T05:10:19.687Z,89.57
2023-09-11T05:12:50.013Z,89.36
2023-09-11T05:15:21.980Z,89.37
2023-09-11T05:17:53.670Z,88.85
2023-09-11T05:20:22.615Z,88.41
2023-09-11T05:22:51.658Z,88.07
2023-09-11T05:25:21.703Z,87.56
2023-09-11T05:27:51.078Z,86.94
2023-09-11T05:30:21.777Z,86.74
2023-09-11T05:32:53.039Z,86.49
2023-09-11T05:35:22.690Z,86.53
2023-09-11T05:37:51.899Z,86.57
2023-09-11T05:40:21.034Z,86.31
2023-09-11T05:42:50.235Z,86.02
2023-09-11T05:45:19.730Z,85.88
2023-09-11T05:47:54.670Z,85.93
2023-09-11T05:50:23.702Z,85.89
2023-09-11T05:52:55.070Z,85.84
2023-09-11T05:55:23.851Z,85.50
2023-09-11T05:57:52.634Z,84.93
2023-09-11T06:00:21.741Z,85.06
2023-09-11T06:02:53.347Z,85.00
2023-09-11T06:05:25.886Z,84.80
2023-09-11T06:07:54.849Z,84.56
2023-09-11T06:10:24.017Z,84.25
2023-09-11T06:12:53.055Z,84.02
2023-09-11T06:15:21.973Z,83.77
2023-09-11T06:17:53.373Z,83.68
2023-09-11T06:20:22.619Z,83.40
2023-09-11T06:22:52.672Z,83.02
2023-09-11T06:25:21.864Z,82.53
2023-09-11T06:27:52.173Z,82.33
2023-09-11T06:30:21.497Z,82.25
2023-09-11T06:32:50.528Z,81.90
2023-09-11T06:35:19.890Z,80.57
2023-09-11T06:37:51.807Z,78.55
2023-09-11T06:40:20.801Z,74.09
2023-09-11T06:42:49.724Z,71.07
2023-09-11T06:45:18.787Z,67.83
2023-09-11T06:47:50.531Z,65.49
2023-09-11T06:50:21.252Z,62.12
2023-09-11T06:52:50.320Z,57.83
2023-09-11T06:55:19.542Z,57.06
2023-09-11T06:57:57.933Z,55.22
2023-09-11T07:00:27.614Z,55.18
2023-09-11T07:02:56.885Z,55.62
2023-09-11T07:05:27.594Z,56.65
2023-09-11T07:07:56.532Z,55.83
2023-09-11T07:10:38.136Z,56.91
2023-09-11T07:13:11.107Z,58.80
2023-09-11T07:15:40.130Z,60.71
2023-09-11T07:18:09.842Z,61.33
2023-09-11T07:20:38.879Z,61.64
2023-09-11T07:23:08.231Z,62.05
2023-09-11T07:25:37.193Z,62.14
2023-09-11T07:28:13.738Z,61.39
2023-09-11T07:30:43.520Z,60.14
2023-09-11T07:33:12.696Z,60.08
2023-09-11T07:35:41.607Z,59.84
2023-09-11T07:38:12.835Z,60.16
2023-09-11T07:40:42.153Z,60.83
2023-09-11T07:43:11.860Z,61.71
2023-09-11T07:45:40.897Z,61.70
2023-09-11T07:48:09.974Z,62.14
2023-09-11T07:50:39.059Z,62.67
2023-09-11T07:53:08.419Z,64.34
2023-09-11T07:55:38.620Z,62.95
2023-09-11T07:58:10.134Z,61.82
2023-09-11T08:00:38.997Z,62.05
2023-09-11T08:03:08.275Z,58.40
2023-09-11T08:05:37.439Z,57.85
2023-09-11T08:08:07.353Z,56.01
2023-09-11T08:10:36.379Z,55.10
2023-09-11T08:13:05.689Z,53.19
2023-09-11T08:15:34.925Z,54.69
2023-09-11T08:18:07.308Z,53.72
2023-09-11T08:20:36.088Z,54.21
2023-09-11T08:23:05.448Z,50.21
2023-09-11T08:25:35.066Z,47.62
2023-09-11T08:28:07.663Z,45.12
2023-09-11T08:30:37.542Z,45.08
2023-09-11T08:33:15.490Z,42.70
2023-09-11T08:35:45.033Z,40.70
2023-09-11T08:38:13.805Z,39.10
2023-09-11T08:40:44.112Z,38.42
2023-09-11T08:43:12.903Z,35.67
2023-09-11T08:45:42.467Z,34.85
2023-09-11T08:48:16.327Z,34.52
2023-09-11T08:50:49.375Z,32.68
2023-09-11T08:53:20.157Z,32.15
2023-09-11T08:55:50.221Z,31.44
2023-09-11T08:58:22.636Z,31.21
2023-09-11T09:00:51.781Z,31.09
2023-09-11T09:03:21.782Z,29.93
2023-09-11T09:05:51.339Z,29.40
2023-09-11T09:08:21.216Z,30.34
2023-09-11T09:10:50.665Z,30.75
2023-09-11T09:13:20.823Z,30.50
2023-09-11T09:15:49.776Z,30.86
2023-09-11T09:18:18.953Z,32.12
2023-09-11T09:20:48.243Z,32.07
2023-09-11T09:23:18.264Z,31.72
2023-09-11T09:25:47.060Z,32.94
2023-09-11T09:28:31.076Z,31.94
2023-09-11T09:31:04.054Z,33.06
2023-09-11T09:33:34.445Z,33.23
2023-09-11T09:36:04.032Z,35.41
2023-09-11T09:38:34.126Z,35.21
2023-09-11T09:41:11.097Z,35.75
2023-09-11T09:43:40.111Z,36.77
2023-09-11T09:46:20.608Z,37.82
2023-09-11T09:48:49.667Z,37.96
2023-09-11T09:51:19.229Z,38.81
2023-09-11T09:53:52.814Z,37.84
2023-09-11T09:56:21.933Z,38.93
2023-09-11T09:58:51.995Z,39.96
2023-09-11T10:01:21.898Z,39.50
2023-09-11T10:03:52.631Z,41.69
2023-09-11T10:06:27.519Z,38.47
2023-09-11T10:09:07.413Z,40.51
2023-09-11T10:11:37.477Z,38.68
2023-09-11T10:14:08.588Z,37.85
2023-09-11T10:16:38.305Z,36.44
2023-09-11T10:19:07.632Z,39.22
2023-09-11T10:21:36.812Z,36.66
2023-09-11T10:24:09.422Z,37.47
2023-09-11T10:26:41.577Z,36.32
2023-09-11T10:29:17.041Z,36.65
2023-09-11T10:31:53.817Z,36.42
2023-09-11T10:34:24.559Z,36.94
2023-09-11T10:36:59.677Z,37.40
2023-09-11T10:39:28.739Z,38.39
2023-09-11T10:41:57.656Z,36.13
2023-09-11T10:44:29.696Z,38.04
2023-09-11T10:47:05.440Z,38.35
2023-09-11T10:49:38.892Z,36.32
2023-09-11T10:52:09.487Z,36.99
2023-09-11T10:54:38.565Z,36.28
2023-09-11T10:57:07.947Z,37.47
2023-09-11T10:59:37.164Z,36.18
2023-09-11T11:02:06.841Z,36.74
2023-09-11T11:04:36.374Z,35.80
2023-09-11T11:07:08.925Z,34.72
2023-09-11T11:09:42.169Z,37.77
2023-09-11T11:12:15.813Z,37.42
2023-09-11T11:15:13.401Z,38.00
2023-09-11T11:17:43.045Z,36.23
2023-09-11T11:20:12.750Z,36.61
2023-09-11T11:22:42.691Z,36.83
2023-09-11T11:25:13.045Z,37.45
2023-09-11T11:27:43.035Z,37.27
2023-09-11T11:30:13.429Z,37.67
2023-09-11T11:32:43.097Z,36.41
2023-09-11T11:35:16.458Z,38.76
2023-09-11T11:37:50.587Z,37.93
2023-09-11T11:40:21.998Z,37.45
2023-09-11T11:42:52.442Z,36.55
2023-09-11T11:45:21.871Z,36.83
2023-09-11T11:47:52.665Z,36.91
2023-09-11T11:50:22.083Z,38.25
2023-09-11T11:52:51.861Z,37.26
2023-09-11T11:55:24.979Z,38.04
2023-09-11T11:57:55.146Z,37.53
2023-09-11T12:00:24.241Z,39.03
2023-09-11T12:03:03.887Z,38.14
2023-09-11T12:05:33.384Z,38.07
2023-09-11T12:08:04.464Z,38.61
2023-09-11T12:10:33.797Z,38.32
2023-09-11T12:13:03.654Z,38.72
2023-09-11T12:15:32.912Z,38.17
2023-09-11T12:18:04.176Z,38.29
2023-09-11T12:20:33.814Z,38.93
2023-09-11T12:23:04.355Z,39.66
2023-09-11T12:25:33.493Z,39.23
2023-09-11T12:28:04.953Z,38.49
2023-09-11T12:30:34.464Z,38.72
2023-09-11T12:33:07.434Z,40.74
2023-09-11T12:35:35.829Z,39.42
2023-09-11T12:38:09.914Z,40.01
2023-09-11T12:40:39.661Z,39.77
2023-09-11T12:43:11.679Z,39.19
2023-09-11T12:45:41.112Z,39.79
2023-09-11T12:48:10.934Z,40.40
2023-09-11T12:50:42.298Z,39.66
2023-09-11T12:53:12.191Z,39.85
2023-09-11T12:55:41.408Z,40.26
2023-09-11T12:58:10.846Z,40.42
2023-09-11T13:12:47.011Z,41.75
2023-09-11T13:15:16.883Z,40.12
2023-09-11T13:17:47.242Z,40.71
2023-09-11T13:20:16.512Z,40.34
2023-09-11T13:22:46.077Z,40.66
2023-09-11T13:25:16.116Z,41.49
2023-09-11T13:27:45.432Z,41.16
2023-09-11T13:30:15.140Z,42.38
2023-09-11T13:32:46.736Z,42.07
2023-09-11T13:35:16.617Z,42.61
2023-09-11T13:37:45.857Z,42.00
2023-09-11T13:40:15.236Z,42.38
2023-09-11T13:42:49.533Z,42.71
2023-09-11T13:45:19.873Z,42.30
2023-09-11T13:47:50.088Z,43.16
2023-09-11T13:50:19.418Z,41.77
2023-09-11T13:52:48.853Z,42.92
2023-09-11T13:55:17.873Z,42.54
2023-09-11T13:57:48.372Z,42.70
2023-09-11T14:00:19.799Z,42.35
2023-09-11T14:02:49.203Z,42.68
2023-09-11T14:05:19.796Z,43.14
2023-09-11T14:07:50.534Z,43.13
2023-09-11T14:10:19.646Z,44.56
2023-09-11T14:12:48.880Z,43.72
2023-09-11T14:15:21.038Z,43.30
2023-09-11T14:17:50.524Z,44.90
2023-09-11T14:20:19.840Z,43.55
2023-09-11T14:22:51.267Z,43.96
2023-09-11T14:25:20.071Z,45.02
2023-09-11T14:27:49.283Z,45.24
2023-09-11T14:30:18.711Z,45.73
2023-09-11T14:32:50.915Z,45.31
2023-09-11T14:35:20.775Z,45.62
2023-09-11T14:37:50.052Z,46.21
2023-09-11T14:40:19.167Z,45.78
2023-09-11T14:42:49.052Z,44.63
2023-09-11T14:45:18.215Z,45.53
2023-09-11T14:47:49.059Z,45.11
2023-09-11T14:50:18.464Z,44.07
2023-09-11T14:52:50.824Z,45.08
2023-09-11T14:55:23.441Z,45.56
2023-09-11T14:57:54.109Z,45.88
2023-09-11T15:00:23.462Z,45.91
2023-09-11T15:02:54.393Z,45.74
2023-09-11T15:05:23.842Z,45.83
2023-09-11T15:07:56.767Z,45.83
2023-09-11T15:10:25.772Z,47.57
2023-09-11T15:12:54.731Z,45.88
2023-09-11T15:15:23.933Z,46.68
2023-09-11T15:17:53.058Z,47.26
2023-09-11T15:20:21.910Z,46.40
2023-09-11T15:22:50.787Z,46.07
2023-09-11T15:25:19.826Z,48.29
2023-09-11T15:27:50.900Z,45.82
2023-09-11T15:30:23.166Z,46.98
2023-09-11T15:32:52.289Z,48.44
2023-09-11T15:35:21.241Z,48.64
2023-09-11T15:37:50.062Z,47.41
2023-09-11T15:40:18.751Z,48.80
2023-09-11T15:42:52.025Z,49.22
2023-09-11T15:45:21.259Z,47.79
2023-09-11T15:47:50.493Z,48.98
2023-09-11T15:50:20.691Z,49.76
2023-09-11T15:52:49.869Z,49.79
2023-09-11T15:55:18.570Z,51.20
2023-09-11T15:57:54.709Z,50.44
2023-09-11T16:00:25.588Z,51.45
2023-09-11T16:02:54.896Z,53.56
2023-09-11T16:05:23.873Z,53.57
2023-09-11T16:07:52.804Z,54.42
2023-09-11T16:10:21.958Z,55.34
2023-09-11T16:12:50.921Z,55.04
2023-09-11T16:15:20.344Z,55.84
2023-09-11T16:17:49.910Z,56.83
2023-09-11T16:20:18.805Z,57.94
2023-09-11T16:22:50.783Z,57.72
2023-09-11T16:25:22.539Z,58.82
2023-09-11T16:27:51.355Z,59.15
2023-09-11T16:30:22.261Z,59.66
2023-09-11T16:32:53.216Z,59.71
2023-09-11T16:35:22.713Z,59.36
2023-09-11T16:37:51.756Z,59.34
2023-09-11T16:40:20.998Z,60.67
2023-09-11T16:42:52.691Z,60.33
2023-09-11T16:45:21.801Z,60.62
2023-09-11T16:47:50.895Z,60.96
2023-09-11T16:50:22.080Z,61.13
2023-09-11T16:52:50.902Z,61.71
2023-09-11T16:55:20.166Z,61.43
2023-09-11T16:57:49.262Z,61.55
2023-09-11T17:00:21.343Z,61.80
2023-09-11T17:02:53.495Z,62.69
2023-09-11T17:05:22.464Z,63.56
2023-09-11T17:07:51.363Z,63.94
2023-09-11T17:10:20.569Z,63.61
2023-09-11T17:12:52.915Z,63.74
2023-09-11T17:15:22.012Z,63.96
2023-09-11T17:17:50.993Z,64.63
2023-09-11T17:20:21.704Z,64.68
2023-09-11T17:22:52.730Z,65.16
2023-09-11T17:25:22.984Z,65.31
2023-09-11T17:27:52.200Z,65.24
2023-09-11T17:30:21.184Z,66.03
2023-09-11T17:32:50.110Z,65.74
2023-09-11T17:35:20.106Z,65.87
2023-09-11T17:37:51.810Z,66.38
2023-09-11T17:40:20.689Z,66.90
2023-09-11T17:42:49.938Z,67.14
2023-09-11T17:45:19.280Z,66.43
2023-09-11T17:47:49.939Z,67.03
2023-09-11T17:50:18.892Z,67.30
2023-09-11T17:52:53.696Z,67.00
2023-09-11T17:55:22.683Z,67.93
2023-09-11T17:57:51.962Z,67.84
2023-09-11T18:00:22.407Z,68.40
2023-09-11T18:02:51.721Z,68.81
2023-09-11T18:05:22.574Z,68.69
2023-09-11T18:07:51.687Z,68.85
2023-09-11T18:10:20.880Z,69.16
2023-09-11T18:12:49.957Z,69.66
2023-09-11T18:15:18.914Z,69.60
2023-09-11T18:17:48.109Z,69.50
2023-09-11T18:20:18.198Z,70.35
2023-09-11T18:22:50.209Z,70.61
2023-09-11T18:25:21.071Z,70.67
2023-09-11T18:27:50.186Z,71.25
2023-09-11T18:30:19.776Z,71.49
2023-09-11T18:32:52.721Z,71.76
2023-09-11T18:35:21.785Z,71.78
2023-09-11T18:37:53.985Z,72.50
2023-09-11T18:40:23.079Z,72.28
2023-09-11T18:42:54.570Z,72.51
2023-09-11T18:45:29.025Z,74.18
2023-09-11T18:47:58.178Z,74.53
2023-09-11T18:50:27.486Z,74.56
2023-09-11T18:52:59.379Z,73.86
2023-09-11T18:55:31.777Z,73.42
2023-09-11T18:58:00.725Z,73.79
2023-09-11T19:00:32.583Z,73.72
2023-09-11T19:03:11.401Z,74.22
2023-09-11T19:05:40.898Z,74.53
2023-09-11T19:08:13.545Z,74.74
2023-09-11T19:10:43.219Z,74.87
2023-09-11T19:13:12.256Z,74.58
2023-09-11T19:15:41.758Z,74.37
2023-09-11T19:18:10.644Z,74.68
2023-09-11T19:20:40.064Z,76.12
2023-09-11T19:23:09.917Z,76.52
2023-09-11T19:25:39.439Z,75.73
2023-09-11T19:28:09.245Z,76.21
2023-09-11T19:30:38.788Z,76.93
2023-09-11T19:33:08.588Z,76.93
2023-09-11T19:35:38.449Z,76.62
2023-09-11T19:38:08.141Z,76.73
2023-09-11T19:40:38.626Z,77.27
2023-09-11T19:43:07.974Z,77.34
2023-09-11T19:45:37.431Z,77.67
2023-09-11T19:48:10.587Z,77.90
2023-09-11T19:50:39.878Z,77.95
2023-09-11T19:53:11.897Z,78.27
2023-09-11T19:55:41.613Z,78.77
2023-09-11T19:58:10.649Z,79.06
2023-09-11T20:00:43.075Z,78.99
2023-09-11T20:03:14.444Z,79.29
2023-09-11T20:05:44.169Z,79.28
2023-09-11T20:08:17.210Z,79.64
2023-09-11T20:10:45.977Z,79.42
2023-09-11T20:13:14.881Z,79.33
2023-09-11T20:15:43.737Z,79.67
2023-09-11T20:18:12.803Z,79.88
2023-09-11T20:20:42.956Z,79.82
2023-09-11T20:23:12.433Z,79.73
2023-09-11T20:25:41.271Z,79.66
2023-09-11T20:28:10.265Z,80.09
2023-09-11T20:30:39.078Z,80.30
2023-09-11T20:33:11.423Z,80.50
2023-09-11T20:35:43.770Z,80.26
2023-09-11T20:38:13.037Z,80.38
2023-09-11T20:40:42.751Z,80.54
2023-09-11T20:43:11.692Z,80.62
2023-09-11T20:45:43.271Z,80.62
2023-09-11T20:48:12.286Z,80.99
2023-09-11T20:50:41.804Z,81.22
2023-09-11T20:53:15.789Z,81.18
2023-09-11T20:55:48.711Z,81.39
2023-09-11T20:58:25.352Z,81.00
2023-09-11T21:00:54.329Z,81.09
2023-09-11T21:03:27.591Z,81.19
2023-09-11T21:05:57.208Z,81.19
2023-09-11T21:08:26.446Z,81.70
2023-09-11T21:10:56.071Z,81.73
2023-09-11T21:13:26.585Z,81.60
2023-09-11T21:15:56.821Z,81.68
2023-09-11T21:18:26.459Z,82.15
2023-09-11T21:20:55.756Z,82.29
2023-09-11T21:23:26.080Z,82.54
2023-09-11T21:25:56.712Z,83.17
2023-09-11T21:28:31.391Z,83.01
2023-09-11T21:31:00.400Z,82.89
2023-09-11T21:33:32.252Z,83.07
2023-09-11T21:36:01.348Z,83.10
2023-09-11T21:38:30.720Z,83.16
2023-09-11T21:40:59.713Z,83.24
2023-09-11T21:43:28.714Z,83.26
2023-09-11T21:45:57.649Z,83.98
2023-09-11T21:48:26.452Z,84.46
2023-09-11T21:50:55.828Z,84.37
2023-09-11T21:53:27.246Z,84.37
2023-09-11T21:55:58.273Z,84.24
2023-09-11T21:58:27.250Z,84.27
2023-09-11T22:00:56.097Z,83.98
2023-09-11T22:03:26.135Z,83.88
2023-09-11T22:05:55.027Z,83.94
2023-09-11T22:08:26.786Z,83.97
2023-09-11T22:10:59.970Z,84.16
2023-09-11T22:13:29.471Z,84.45
2023-09-11T22:15:58.582Z,84.37
2023-09-11T22:18:27.637Z,84.11
2023-09-11T22:20:57.454Z,84.21
2023-09-11T22:23:26.366Z,83.99
2023-09-11T22:25:55.625Z,84.17
2023-09-11T22:28:24.399Z,83.90
2023-09-11T22:30:53.202Z,84.04
2023-09-11T22:33:22.496Z,84.15
2023-09-11T22:35:54.456Z,84.44
2023-09-11T22:38:23.674Z,84.31
2023-09-11T22:40:53.298Z,84.94
2023-09-11T22:43:22.139Z,84.60
2023-09-11T22:45:50.963Z,84.81
2023-09-11T22:48:19.846Z,84.89
2023-09-11T22:50:48.727Z,84.69
2023-09-11T22:53:17.560Z,84.57
2023-09-11T22:55:46.308Z,84.48
2023-09-11T22:58:15.289Z,84.38
2023-09-11T23:00:44.190Z,84.49
2023-09-11T23:03:13.350Z,85.16
2023-09-11T23:05:42.269Z,85.71
2023-09-11T23:08:13.326Z,85.91
2023-09-11T23:10:42.268Z,85.27
2023-09-11T23:13:11.112Z,85.09
2023-09-11T23:15:40.257Z,85.19
2023-09-11T23:18:09.769Z,85.75
2023-09-11T23:20:38.928Z,85.88
2023-09-11T23:23:07.739Z,85.40
2023-09-11T23:25:36.863Z,85.27
2023-09-11T23:28:06.904Z,85.06
2023-09-11T23:30:37.433Z,85.16
2023-09-11T23:33:07.494Z,85.39
2023-09-11T23:35:39.580Z,85.44
2023-09-11T23:38:08.583Z,85.42
2023-09-11T23:40:37.892Z,85.42
2023-09-11T23:43:09.275Z,85.44
2023-09-11T23:45:38.065Z,85.24
2023-09-11T23:48:10.308Z,85.53
2023-09-11T23:50:46.521Z,85.72
2023-09-11T23:53:14.792Z,84.43
2023-09-11T23:55:43.630Z,85.45
2023-09-11T23:58:15.424Z,85.42
